Ringle, WI (54471)

8:45 PM CDT on April 20, 2015 (GMT -0500)
Knopf's House | | Change Station
CLOSE
Current Station
Personal Weather Station
Location: Weston, WI
Elevation: 1214 ft
Nearby Weather Stations

Elev 1214 ft 44.91 °N, 89.55 °W | Updated 3 minutes ago

Overcast
Overcast
37.8 °F
Feels Like 29 °F
N
14.5
Wind Variable Wind from West

Today
High -- | Low -- °F
--% Chance of Precip.
Yesterday
High -- | Low -- °F
Precip. -- in
6:05 AM 7:49 PM
Waxing Crescent, 7% visible
Pressure 29.45 in
Visibility 10.0 miles
Clouds Overcast 4200 ft
Windchill 29 °F
Dew Point 32 °F
Humidity 78%
Rainfall 0.46 in
Snow Depth Not available.
UV 0 out of 12
Pollen 7.50 out of 12
Air Quality Not available.
Flu Activity Local Activity
METAR KAUW 210054Z AUTO 26014G20KT 10SM OVC042 03/M02 A2941 RMK AO2 SLP972 T00331022

More Conditions Fewer Conditions

Pressure 29.45 in
Visibility 10.0 miles
Clouds Overcast 4200 ft
Windchill 29 °F
Dew Point 32 °F
Humidity 78%
Rainfall 0.46 in
Snow Depth Not available.
UV 0 out of 12
Pollen 7.50 out of 12
Air Quality Not available.
Flu Activity Local Activity
METAR KAUW 210054Z AUTO 26014G20KT 10SM OVC042 03/M02 A2941 RMK AO2 SLP972 T00331022

More Conditions Fewer Conditions

10-Day Weather Forecast

Almanac

Astronomy

Apr. 20, 2015 Rise Set
Actual Time
Civil Twilight
Nautical Twilight
Astronomical Twilight
Moon
Length of Visible Light
Length of Day
Tomorrow will be .
, % of the Moon is Illuminated

Today's Extremes

State Highs State Lows

Community

WunderPhotos

Upload Photos

1,815,276 photos uploaded!

WunderBlogs® & News

Nearby

Air Quality

  Air Quality AQ Index Pollutant
Not available.

Snow Depth

Station Depth Elevation

Earthquake Activity

City Distance Mag. Time & Date
Minimum magnitude displayed is 2.5.

Coastal Water Temperatures

Place Temperature

Stations

Nearby Weather Stations

Station Location Temp. Windchill Dew Point Humidity Wind Precip. Elev Updated Type